createdAt,value
2018-02-23T00:00:01.160Z,12.50
2018-02-23T00:02:30.309Z,15.20
2018-02-23T00:04:58.665Z,14.23
2018-02-23T00:07:26.972Z,14.23
2018-02-23T00:09:55.324Z,11.82
2018-02-23T00:12:23.638Z,13.45
2018-02-23T00:14:51.932Z,14.27
2018-02-23T00:17:20.836Z,12.82
2018-02-23T00:19:49.961Z,14.20
2018-02-23T00:22:18.274Z,17.40
2018-02-23T00:24:46.636Z,14.75
2018-02-23T00:27:14.962Z,16.48
2018-02-23T00:29:43.281Z,14.30
2018-02-23T00:32:11.615Z,15.27
2018-02-23T00:34:39.941Z,14.82
2018-02-23T00:37:08.272Z,21.95
2018-02-23T00:39:36.963Z,16.08
2018-02-23T00:42:06.031Z,15.32
2018-02-23T00:44:34.367Z,18.35
2018-02-23T00:47:02.755Z,22.02
2018-02-23T00:49:31.049Z,17.48
2018-02-23T00:51:59.353Z,21.92
2018-02-23T00:54:27.717Z,20.10
2018-02-23T00:56:56.815Z,22.60
2018-02-23T00:59:25.158Z,18.73
2018-02-23T01:01:53.823Z,20.00
2018-02-23T01:04:22.938Z,22.70
2018-02-23T01:06:51.261Z,21.67
2018-02-23T01:09:19.592Z,23.70
2018-02-23T01:11:47.912Z,33.17
2018-02-23T01:14:16.226Z,22.35
2018-02-23T01:16:45.329Z,27.27
2018-02-23T01:19:14.388Z,30.65
2018-02-23T01:21:42.699Z,26.08
2018-02-23T01:24:12.101Z,27.08
2018-02-23T01:26:41.189Z,36.75
2018-02-23T01:29:09.523Z,30.98
2018-02-23T01:31:37.861Z,31.87
2018-02-23T01:34:06.947Z,28.87
2018-02-23T01:36:35.273Z,36.13
2018-02-23T01:39:03.613Z,33.28
2018-02-23T01:41:31.950Z,37.65
2018-02-23T01:44:00.272Z,38.53
2018-02-23T01:46:29.585Z,32.35
2018-02-23T01:48:57.916Z,34.38
2018-02-23T01:51:26.223Z,35.40
2018-02-23T01:53:54.586Z,36.15
2018-02-23T01:56:22.926Z,39.40
2018-02-23T01:58:51.228Z,36.97
2018-02-23T02:01:19.599Z,38.50
2018-02-23T02:03:47.921Z,36.75
2018-02-23T02:06:17.016Z,36.30
2018-02-23T02:08:46.255Z,34.10
2018-02-23T02:11:14.592Z,35.60
2018-02-23T02:13:43.665Z,41.63
2018-02-23T02:16:12.028Z,39.60
2018-02-23T02:18:40.320Z,36.58
2018-02-23T02:21:08.644Z,48.30
2018-02-23T02:23:36.977Z,35.10
2018-02-23T02:26:05.340Z,36.72
2018-02-23T02:28:33.689Z,43.00
2018-02-23T02:31:02.513Z,42.20
2018-02-23T02:33:30.861Z,38.95
2018-02-23T02:35:59.177Z,36.70
2018-02-23T02:38:27.529Z,39.55
2018-02-23T02:40:55.859Z,44.97
2018-02-23T02:43:24.976Z,44.10
2018-02-23T02:45:53.297Z,39.47
2018-02-23T02:48:21.641Z,40.53
2018-02-23T02:50:49.969Z,39.67
2018-02-23T02:53:18.805Z,40.50
2018-02-23T02:55:47.133Z,38.20
2018-02-23T02:58:15.479Z,40.97
2018-02-23T03:00:43.856Z,51.30
2018-02-23T03:03:12.166Z,41.95
2018-02-23T03:05:40.510Z,46.37
2018-02-23T03:08:08.834Z,41.92
2018-02-23T03:10:37.147Z,45.95
2018-02-23T03:13:05.480Z,49.47
2018-02-23T03:15:34.044Z,39.15
2018-02-23T03:18:02.369Z,44.03
2018-02-23T03:20:31.443Z,45.70
2018-02-23T03:22:59.810Z,44.25
2018-02-23T03:25:28.163Z,37.55
2018-02-23T03:27:56.487Z,39.60
2018-02-23T03:30:24.841Z,43.67
2018-02-23T03:32:53.178Z,40.50
2018-02-23T03:35:21.512Z,35.58
2018-02-23T03:37:50.101Z,37.85
2018-02-23T03:40:18.420Z,38.03
2018-02-23T03:42:46.792Z,38.70
2018-02-23T03:45:15.889Z,37.50
2018-02-23T03:47:44.970Z,37.83
2018-02-23T03:50:14.051Z,35.05
2018-02-23T03:52:42.395Z,37.60
2018-02-23T03:55:10.728Z,32.45
2018-02-23T03:57:39.045Z,31.50
2018-02-23T04:00:07.904Z,28.75
2018-02-23T04:02:37.064Z,34.53
2018-02-23T04:05:05.381Z,33.08
2018-02-23T04:07:33.760Z,26.33
2018-02-23T04:10:02.827Z,24.33
2018-02-23T04:12:31.131Z,26.17
2018-02-23T04:14:59.464Z,26.83
2018-02-23T04:17:28.571Z,28.00
2018-02-23T04:19:56.923Z,22.17
2018-02-23T04:22:25.435Z,23.42
2018-02-23T04:24:53.756Z,24.50
2018-02-23T04:27:22.070Z,16.90
2018-02-23T04:29:50.413Z,17.25
2018-02-23T04:32:18.769Z,24.60
2018-02-23T04:34:47.086Z,17.15
2018-02-23T04:37:15.453Z,18.33
2018-02-23T04:39:43.744Z,22.17
2018-02-23T04:42:12.067Z,20.30
2018-02-23T04:44:40.929Z,17.48
2018-02-23T04:47:09.241Z,17.92
2018-02-23T04:49:37.549Z,15.82
2018-02-23T04:52:05.907Z,15.65
2018-02-23T04:54:35.003Z,16.27
2018-02-23T04:57:04.095Z,18.62
2018-02-23T04:59:33.200Z,19.83
2018-02-23T05:02:02.304Z,20.98
2018-02-23T05:04:31.387Z,21.67
2018-02-23T05:07:00.885Z,20.75
2018-02-23T05:09:29.960Z,15.38
2018-02-23T05:11:58.304Z,23.67
2018-02-23T05:14:26.663Z,18.30
2018-02-23T05:16:55.064Z,17.23
2018-02-23T05:19:23.379Z,17.67
2018-02-23T05:21:51.730Z,12.80
2018-02-23T05:24:20.054Z,17.25
2018-02-23T05:26:49.133Z,11.57
2018-02-23T05:29:18.001Z,14.38
2018-02-23T05:31:46.309Z,14.85
2018-02-23T05:34:14.780Z,18.33
2018-02-23T05:36:43.118Z,10.85
2018-02-23T05:39:11.531Z,10.93
2018-02-23T05:41:39.849Z,11.95
2018-02-23T05:44:09.273Z,9.05
2018-02-23T05:46:37.612Z,12.68
2018-02-23T05:49:05.965Z,14.57
2018-02-23T05:51:34.646Z,21.73
2018-02-23T05:54:02.999Z,12.60
2018-02-23T05:56:31.368Z,11.23
2018-02-23T05:59:00.512Z,13.18
2018-02-23T06:01:28.879Z,16.77
2018-02-23T06:03:57.215Z,10.70
2018-02-23T06:06:26.445Z,12.30
2018-02-23T06:08:54.753Z,11.55
2018-02-23T06:11:23.098Z,12.95
2018-02-23T06:13:51.584Z,11.82
2018-02-23T06:16:25.387Z,15.20
2018-02-23T06:18:58.135Z,14.75
2018-02-23T06:21:27.268Z,16.40
2018-02-23T06:23:55.629Z,11.73
2018-02-23T06:26:24.077Z,13.10
2018-02-23T06:28:53.168Z,16.35
2018-02-23T06:31:21.502Z,11.00
2018-02-23T06:33:50.093Z,9.75
2018-02-23T06:36:18.449Z,9.85
2018-02-23T06:38:46.742Z,10.48
2018-02-23T06:41:15.100Z,9.50
2018-02-23T06:43:44.173Z,8.70
2018-02-23T06:46:12.784Z,12.82
2018-02-23T06:48:41.093Z,11.32
2018-02-23T06:51:09.528Z,10.48
2018-02-23T06:53:37.850Z,9.05
2018-02-23T06:56:06.699Z,17.62
2018-02-23T06:58:35.016Z,9.05
2018-02-23T07:01:03.368Z,11.12
2018-02-23T07:03:31.716Z,11.73
2018-02-23T07:06:00.040Z,9.50
2018-02-23T07:08:28.339Z,8.48
2018-02-23T07:10:57.738Z,11.30
2018-02-23T07:13:26.070Z,10.30
2018-02-23T07:15:54.385Z,9.82
2018-02-23T07:18:22.959Z,17.35
2018-02-23T07:20:51.294Z,11.95
2018-02-23T07:23:20.424Z,13.95
2018-02-23T07:25:48.772Z,15.68
2018-02-23T07:28:17.889Z,12.88
2018-02-23T07:30:46.231Z,12.00
2018-02-23T07:33:14.589Z,11.32
2018-02-23T07:35:42.916Z,11.38
2018-02-23T07:38:12.016Z,9.48
2018-02-23T07:40:40.538Z,10.17
2018-02-23T07:43:08.857Z,14.00
2018-02-23T07:45:37.202Z,10.23
2018-02-23T07:48:05.593Z,12.27
2018-02-23T07:50:33.928Z,9.87
2018-02-23T07:53:02.277Z,13.70
2018-02-23T07:55:31.418Z,13.53
2018-02-23T07:57:59.741Z,9.80
2018-02-23T08:00:28.058Z,10.20
2018-02-23T08:02:56.494Z,16.60
2018-02-23T08:05:24.840Z,11.07
2018-02-23T08:07:53.141Z,13.57
2018-02-23T08:10:22.247Z,31.27
2018-02-23T08:12:50.601Z,14.13
2018-02-23T08:15:18.925Z,12.97
2018-02-23T08:17:48.023Z,17.80
2018-02-23T08:20:16.367Z,18.17
2018-02-23T08:22:44.715Z,16.50
2018-02-23T08:25:13.126Z,17.77
2018-02-23T08:27:41.435Z,21.90
2018-02-23T08:30:10.545Z,17.77
2018-02-23T08:32:38.979Z,23.77
2018-02-23T08:35:07.319Z,20.57
2018-02-23T08:37:35.649Z,24.03
2018-02-23T08:40:04.734Z,27.50
2018-02-23T08:42:33.056Z,25.07
2018-02-23T08:45:02.167Z,24.80
2018-02-23T08:47:30.591Z,25.70
2018-02-23T08:49:58.936Z,26.37
2018-02-23T08:52:27.270Z,27.70
2018-02-23T08:54:55.659Z,25.57
2018-02-23T08:57:24.754Z,27.60
2018-02-23T08:59:53.879Z,34.53
2018-02-23T09:02:22.243Z,30.57
2018-02-23T09:04:51.341Z,35.90
2018-02-23T09:07:20.440Z,31.47
2018-02-23T09:09:49.223Z,39.83
2018-02-23T09:12:18.298Z,35.27
2018-02-23T09:14:47.403Z,40.80
2018-02-23T09:17:15.747Z,39.23
2018-02-23T09:19:44.113Z,39.47
2018-02-23T09:22:12.456Z,36.83
2018-02-23T09:24:40.862Z,36.67
2018-02-23T09:27:09.157Z,41.57
2018-02-23T09:29:37.485Z,42.13
2018-02-23T09:35:12.557Z,41.13
2018-02-23T09:37:40.917Z,40.40
2018-02-23T09:40:10.006Z,37.73
2018-02-23T09:42:39.122Z,39.30
2018-02-23T09:45:07.474Z,36.20
2018-02-23T09:47:35.825Z,48.63
2018-02-23T09:50:04.200Z,39.50
2018-02-23T09:52:33.141Z,37.23
2018-02-23T09:55:02.223Z,37.97
2018-02-23T09:57:30.547Z,39.43
2018-02-23T09:59:58.913Z,35.83
2018-02-23T10:02:27.262Z,36.00
2018-02-23T10:04:55.645Z,33.70
2018-02-23T10:07:23.964Z,34.38
2018-02-23T10:09:52.289Z,39.97
2018-02-23T10:12:20.637Z,42.28
2018-02-23T10:14:49.476Z,35.63
2018-02-23T10:17:18.551Z,39.28
2018-02-23T10:19:46.910Z,37.83
2018-02-23T10:22:15.296Z,36.50
2018-02-23T10:24:43.632Z,37.13
2018-02-23T10:27:11.959Z,42.07
2018-02-23T10:29:40.635Z,55.20
2018-02-23T10:32:09.023Z,45.53
2018-02-23T10:34:37.425Z,54.30
2018-02-23T10:37:06.646Z,42.50
2018-02-23T10:39:34.996Z,45.73
2018-02-23T10:42:03.315Z,39.90
2018-02-23T10:44:31.714Z,42.20
2018-02-23T10:47:00.056Z,41.70
2018-02-23T10:49:29.141Z,44.57
2018-02-23T10:51:58.267Z,48.17
2018-02-23T10:54:26.618Z,42.53
2018-02-23T10:56:54.941Z,43.50
2018-02-23T10:59:23.563Z,46.97
2018-02-23T11:01:51.955Z,43.27
2018-02-23T11:04:21.072Z,43.23
2018-02-23T11:06:49.445Z,47.10
2018-02-23T11:09:17.785Z,54.23
2018-02-23T11:11:46.131Z,38.93
2018-02-23T11:14:14.469Z,41.87
2018-02-23T11:16:42.809Z,49.27
2018-02-23T11:19:11.136Z,40.57
2018-02-23T11:21:39.929Z,52.07
2018-02-23T11:24:08.252Z,45.23
2018-02-23T11:26:36.572Z,44.97
2018-02-23T11:29:05.688Z,42.00
2018-02-23T11:31:34.018Z,46.90
2018-02-23T11:34:02.326Z,45.20
2018-02-23T11:36:31.429Z,40.50
2018-02-23T11:38:59.838Z,47.80
2018-02-23T11:41:28.192Z,41.70
2018-02-23T11:43:56.730Z,39.67
2018-02-23T11:46:25.036Z,39.97
2018-02-23T11:48:54.109Z,45.17
2018-02-23T11:51:22.438Z,46.70
2018-02-23T11:53:50.752Z,42.00
2018-02-23T11:56:19.068Z,38.23
2018-02-23T11:58:48.181Z,36.23
2018-02-23T12:01:16.516Z,41.20
2018-02-23T12:03:44.829Z,41.40
2018-02-23T12:06:14.217Z,45.80
2018-02-23T12:08:42.593Z,42.20
2018-02-23T12:11:11.866Z,42.53
2018-02-23T12:13:40.259Z,42.70
2018-02-23T12:16:08.570Z,40.13
2018-02-23T12:18:37.664Z,41.33
2018-02-23T12:21:06.029Z,50.73
2018-02-23T12:23:35.184Z,44.43
2018-02-23T12:26:03.487Z,44.07
2018-02-23T12:28:32.209Z,44.43
2018-02-23T12:31:00.531Z,42.80
2018-02-23T12:33:28.882Z,42.37
2018-02-23T12:35:57.240Z,49.17
2018-02-23T12:38:25.605Z,44.83
2018-02-23T12:40:53.953Z,45.47
2018-02-23T12:43:22.312Z,45.20
2018-02-23T12:45:50.653Z,46.87
2018-02-23T12:48:19.744Z,46.60
2018-02-23T12:50:48.992Z,47.33
2018-02-23T12:53:17.314Z,46.93
2018-02-23T12:55:46.433Z,46.63
2018-02-23T12:58:15.529Z,48.60
2018-02-23T13:00:44.635Z,42.77
2018-02-23T13:03:12.985Z,43.47
2018-02-23T13:05:42.136Z,43.87
2018-02-23T13:08:10.500Z,42.83
2018-02-23T13:10:38.853Z,39.63
2018-02-23T13:13:08.188Z,37.00
2018-02-23T13:15:36.522Z,41.20
2018-02-23T13:18:05.638Z,40.13
2018-02-23T13:20:34.004Z,50.53
2018-02-23T13:23:03.083Z,43.33
2018-02-23T13:25:31.403Z,46.90
2018-02-23T13:28:05.076Z,41.97
2018-02-23T13:30:34.157Z,42.13
2018-02-23T13:33:02.509Z,44.70
2018-02-23T13:35:31.233Z,45.73
2018-02-23T13:37:59.570Z,41.40
2018-02-23T13:40:30.713Z,42.70
2018-02-23T13:42:59.074Z,43.60
2018-02-23T13:45:27.385Z,50.40
2018-02-23T13:47:55.715Z,49.93
2018-02-23T13:50:24.065Z,39.77
2018-02-23T13:52:52.475Z,42.50
2018-02-23T13:55:20.819Z,44.37
2018-02-23T13:57:49.620Z,45.23
2018-02-23T14:00:17.943Z,47.60
2018-02-23T14:02:46.276Z,35.83
2018-02-23T14:05:15.428Z,38.03
2018-02-23T14:07:43.738Z,37.57
2018-02-23T14:10:12.073Z,37.40
2018-02-23T14:12:40.451Z,35.53
2018-02-23T14:15:08.783Z,35.93
2018-02-23T14:17:37.986Z,37.93
2018-02-23T14:20:06.691Z,36.33
2018-02-23T14:22:35.005Z,37.20
2018-02-23T14:25:03.352Z,34.33
2018-02-23T14:27:31.679Z,31.73
2018-02-23T14:30:00.005Z,33.93
2018-02-23T14:32:29.138Z,33.43
2018-02-23T14:34:57.687Z,37.50
2018-02-23T14:37:26.091Z,36.80
2018-02-23T14:39:54.432Z,31.97
2018-02-23T14:42:23.847Z,31.07
2018-02-23T14:44:52.301Z,29.20
2018-02-23T14:47:20.604Z,25.93
2018-02-23T14:50:07.335Z,28.47
2018-02-23T14:52:35.667Z,32.23
2018-02-23T14:55:03.982Z,28.40
2018-02-23T14:57:32.547Z,29.27
2018-02-23T15:00:01.665Z,26.33
2018-02-23T15:02:30.004Z,22.63
2018-02-23T15:04:58.382Z,25.87
2018-02-23T15:07:26.754Z,26.23
2018-02-23T15:09:55.108Z,29.67
2018-02-23T15:12:23.478Z,29.40
2018-02-23T15:14:51.841Z,27.30
2018-02-23T15:17:20.188Z,25.90
2018-02-23T15:19:49.806Z,24.33
2018-02-23T15:22:18.130Z,23.50
2018-02-23T15:24:46.440Z,25.20
2018-02-23T15:27:14.799Z,23.20
2018-02-23T15:29:43.140Z,29.43
2018-02-23T15:32:41.103Z,23.00
2018-02-23T15:35:10.523Z,23.03
2018-02-23T15:37:38.853Z,19.90
2018-02-23T15:40:07.379Z,18.80
2018-02-23T15:42:35.701Z,20.93
2018-02-23T15:45:04.034Z,22.17
2018-02-23T15:47:37.217Z,22.43
2018-02-23T15:53:15.138Z,24.13
2018-02-23T15:55:44.254Z,21.63
2018-02-23T16:01:12.212Z,23.00
2018-02-23T16:03:41.321Z,32.77
2018-02-23T16:06:09.638Z,23.65
2018-02-23T16:08:37.975Z,17.42
2018-02-23T16:11:07.109Z,18.70
2018-02-23T16:13:35.426Z,18.25
2018-02-23T16:16:03.761Z,20.75
2018-02-23T16:18:32.581Z,19.27
2018-02-23T16:21:00.915Z,19.12
2018-02-23T16:23:29.239Z,30.73
2018-02-23T16:25:57.605Z,17.02
2018-02-23T16:28:25.937Z,19.12
2018-02-23T16:30:54.267Z,18.42
2018-02-23T16:33:22.597Z,19.08
2018-02-23T16:35:51.236Z,25.55
2018-02-23T16:38:19.565Z,15.57
2018-02-23T16:40:48.118Z,26.87
2018-02-23T16:43:16.445Z,19.17
2018-02-23T16:45:44.776Z,16.45
2018-02-23T16:48:13.128Z,17.62
2018-02-23T16:50:41.462Z,19.52
2018-02-23T16:53:09.769Z,19.80
2018-02-23T16:55:38.148Z,13.95
2018-02-23T16:58:06.487Z,19.08
2018-02-23T17:00:34.830Z,15.02
2018-02-23T17:03:03.683Z,22.35
2018-02-23T17:05:32.032Z,14.43
2018-02-23T17:08:01.117Z,17.12
2018-02-23T17:10:30.225Z,12.82
2018-02-23T17:12:59.305Z,16.27
2018-02-23T17:15:28.381Z,18.73
2018-02-23T17:17:56.745Z,19.45
2018-02-23T17:20:25.076Z,15.68
2018-02-23T17:22:53.418Z,15.27
2018-02-23T17:25:22.080Z,14.77
2018-02-23T17:27:50.473Z,15.32
2018-02-23T17:30:18.817Z,18.10
2018-02-23T17:32:47.154Z,15.10
2018-02-23T17:35:15.450Z,16.30
2018-02-23T17:37:44.878Z,17.25
2018-02-23T17:40:13.220Z,13.32
2018-02-23T17:42:42.294Z,22.98
2018-02-23T17:45:10.644Z,13.00
2018-02-23T17:47:39.396Z,13.73
2018-02-23T17:50:07.742Z,19.73
2018-02-23T17:52:36.064Z,12.15
2018-02-23T17:55:04.429Z,15.57
2018-02-23T17:57:32.772Z,16.62
2018-02-23T18:00:01.099Z,14.25
2018-02-23T18:02:29.490Z,22.10
2018-02-23T18:04:57.810Z,16.67
2018-02-23T18:07:26.142Z,18.90
2018-02-23T18:09:55.469Z,16.60
2018-02-23T18:12:23.790Z,17.27
2018-02-23T18:14:52.128Z,16.52
2018-02-23T18:17:20.494Z,16.42
2018-02-23T18:19:50.169Z,16.98
2018-02-23T18:22:19.267Z,19.62
2018-02-23T18:24:48.367Z,17.62
2018-02-23T18:27:17.502Z,17.00
2018-02-23T18:29:45.837Z,15.90
2018-02-23T18:32:14.516Z,20.05
2018-02-23T18:34:42.869Z,17.95
2018-02-23T18:37:11.213Z,19.12
2018-02-23T18:39:40.092Z,21.58
2018-02-23T18:42:08.412Z,17.02
2018-02-23T18:44:36.741Z,17.42
2018-02-23T18:47:05.098Z,18.85
2018-02-23T18:49:34.187Z,26.02
2018-02-23T18:52:03.275Z,19.65
2018-02-23T18:54:32.313Z,19.92
2018-02-23T18:57:00.663Z,40.67
2018-02-23T18:59:29.777Z,20.58
2018-02-23T19:01:58.195Z,22.40
2018-02-23T19:04:26.534Z,22.98
2018-02-23T19:06:55.628Z,23.50
2018-02-23T19:09:24.764Z,21.48
2018-02-23T19:11:53.071Z,21.17
2018-02-23T19:14:21.395Z,20.90
2018-02-23T19:16:50.112Z,26.35
2018-02-23T19:19:18.435Z,20.92
2018-02-23T19:21:46.772Z,20.52
2018-02-23T19:24:15.172Z,20.05
2018-02-23T19:26:43.476Z,25.30
2018-02-23T19:29:12.609Z,19.75
2018-02-23T19:31:40.974Z,19.00
2018-02-23T19:34:09.289Z,22.13
2018-02-23T19:36:37.616Z,23.42
2018-02-23T19:39:06.366Z,21.08
2018-02-23T19:41:34.677Z,25.83
2018-02-23T19:44:03.034Z,16.40
2018-02-23T19:46:31.354Z,18.30
2018-02-23T19:48:59.672Z,23.77
2018-02-23T19:51:27.982Z,22.48
2018-02-23T19:53:56.350Z,19.60
2018-02-23T19:56:24.664Z,27.30
2018-02-23T19:58:52.965Z,18.40
2018-02-23T20:01:21.605Z,17.40
2018-02-23T20:03:50.748Z,23.98
2018-02-23T20:06:19.091Z,20.52
2018-02-23T20:08:47.743Z,19.50
2018-02-23T20:11:16.058Z,17.85
2018-02-23T20:13:44.423Z,17.62
2018-02-23T20:16:13.570Z,31.50
2018-02-23T20:18:41.936Z,21.50
2018-02-23T20:21:10.289Z,19.90
2018-02-23T20:23:39.863Z,24.12
2018-02-23T20:26:08.253Z,20.37
2018-02-23T20:28:36.779Z,22.13
2018-02-23T20:31:05.158Z,20.62
2018-02-23T20:33:33.500Z,19.85
2018-02-23T20:36:02.638Z,24.25
2018-02-23T20:38:31.039Z,24.58
2018-02-23T20:40:59.397Z,22.62
2018-02-23T20:43:27.746Z,20.67
2018-02-23T20:45:57.245Z,20.88
2018-02-23T20:48:27.062Z,24.70
2018-02-23T20:50:56.205Z,24.98
2018-02-23T20:53:24.616Z,24.42
2018-02-23T20:55:52.952Z,26.95
2018-02-23T20:58:21.296Z,22.70
2018-02-23T21:00:50.421Z,40.40
2018-02-23T21:03:18.843Z,28.25
2018-02-23T21:05:47.291Z,19.60
2018-02-23T21:08:16.085Z,20.67
2018-02-23T21:10:44.432Z,21.17
2018-02-23T21:13:12.756Z,22.33
2018-02-23T21:15:41.190Z,19.48
2018-02-23T21:18:09.571Z,25.88
2018-02-23T21:20:38.043Z,22.90
2018-02-23T21:23:07.231Z,25.00
2018-02-23T21:25:36.341Z,23.75
2018-02-23T21:28:05.435Z,20.80
2018-02-23T21:30:35.033Z,20.00
2018-02-23T21:33:03.368Z,20.70
2018-02-23T21:35:31.699Z,23.45
2018-02-23T21:38:00.860Z,17.08
2018-02-23T21:40:29.306Z,18.17
2018-02-23T21:42:57.621Z,22.20
2018-02-23T21:45:26.013Z,19.77
2018-02-23T21:47:55.182Z,18.20
2018-02-23T21:50:23.577Z,20.27
2018-02-23T21:52:52.853Z,22.85
2018-02-23T21:55:21.259Z,21.98
2018-02-23T21:57:49.658Z,16.70
2018-02-23T22:00:18.333Z,15.50
2018-02-23T22:02:46.667Z,17.08
2018-02-23T22:05:15.060Z,13.75
2018-02-23T22:07:43.420Z,19.55
2018-02-23T22:10:11.737Z,14.98
2018-02-23T22:12:40.058Z,14.60
2018-02-23T22:15:08.650Z,11.98
2018-02-23T22:17:36.998Z,14.20
2018-02-23T22:20:05.343Z,14.70
2018-02-23T22:22:33.709Z,20.67
2018-02-23T22:25:02.026Z,16.77
2018-02-23T22:27:30.344Z,13.32
2018-02-23T22:29:58.711Z,13.45
2018-02-23T22:32:27.813Z,16.37
2018-02-23T22:34:56.153Z,34.50
2018-02-23T22:37:25.002Z,15.23
2018-02-23T22:39:53.327Z,14.40
2018-02-23T22:42:21.632Z,13.77
2018-02-23T22:44:49.962Z,12.88
2018-02-23T22:47:19.063Z,14.73
2018-02-23T22:49:48.157Z,10.45
2018-02-23T22:52:16.493Z,13.00
2018-02-23T22:54:44.837Z,12.15
2018-02-23T22:57:13.164Z,11.00
2018-02-23T22:59:41.638Z,18.92
2018-02-23T23:02:10.042Z,12.25
2018-02-23T23:04:38.503Z,13.60
2018-02-23T23:07:14.625Z,13.90
2018-02-23T23:09:43.012Z,16.55
2018-02-23T23:12:12.109Z,12.93
2018-02-23T23:14:41.268Z,14.87
2018-02-23T23:17:09.580Z,17.27
2018-02-23T23:19:38.673Z,10.38
2018-02-23T23:22:08.600Z,12.80
2018-02-23T23:24:36.955Z,12.70
2018-02-23T23:27:05.291Z,16.27
2018-02-23T23:29:33.669Z,17.62
2018-02-23T23:32:01.999Z,8.52
2018-02-23T23:34:30.357Z,10.82
2018-02-23T23:36:58.715Z,14.95
2018-02-23T23:39:31.878Z,10.43
2018-02-23T23:42:01.580Z,8.82
2018-02-23T23:44:29.878Z,11.85
2018-02-23T23:46:58.221Z,11.75
2018-02-23T23:49:27.324Z,9.30
2018-02-23T23:51:56.413Z,8.70
2018-02-23T23:54:25.541Z,14.05
2018-02-23T23:56:53.871Z,11.15
2018-02-23T23:59:22.175Z,13.48
